createdAt,value
2022-09-03T00:00:01.034Z,19.10
2022-09-03T00:03:00.171Z,19.10
2022-09-03T00:05:38.864Z,19.10
2022-09-03T00:08:21.338Z,19.10
2022-09-03T00:11:01.449Z,19.20
2022-09-03T00:13:38.397Z,19.10
2022-09-03T00:16:10.296Z,19.10
2022-09-03T00:18:44.368Z,19.10
2022-09-03T00:21:39.925Z,19.00
2022-09-03T00:24:14.136Z,19.10
2022-09-03T00:26:47.127Z,19.10
2022-09-03T00:29:33.777Z,19.00
2022-09-03T00:32:07.686Z,19.00
2022-09-03T00:34:42.095Z,19.00
2022-09-03T00:37:14.347Z,18.90
2022-09-03T00:39:42.706Z,18.90
2022-09-03T00:42:47.524Z,18.80
2022-09-03T00:45:18.748Z,18.80
2022-09-03T00:47:59.200Z,18.80
2022-09-03T00:51:01.038Z,18.80
2022-09-03T00:53:44.574Z,18.80
2022-09-03T00:56:41.116Z,18.70
2022-09-03T00:59:52.579Z,18.70
2022-09-03T01:02:36.049Z,18.70
2022-09-03T01:05:10.632Z,18.80
2022-09-03T01:07:49.147Z,18.80
2022-09-03T01:10:43.727Z,18.70
2022-09-03T01:13:14.575Z,18.80
2022-09-03T01:16:06.675Z,18.80
2022-09-03T01:18:59.540Z,18.70
2022-09-03T01:21:52.158Z,18.60
2022-09-03T01:24:50.111Z,18.70
2022-09-03T01:27:30.060Z,18.90
2022-09-03T01:30:09.289Z,18.80
2022-09-03T01:32:47.235Z,18.80
2022-09-03T01:35:37.302Z,18.80
2022-09-03T01:38:13.163Z,18.80
2022-09-03T01:40:54.650Z,18.90
2022-09-03T01:43:45.466Z,18.90
2022-09-03T01:46:37.687Z,18.80
2022-09-03T01:49:30.571Z,18.70
2022-09-03T01:52:12.530Z,18.60
2022-09-03T01:54:50.456Z,18.60
2022-09-03T01:57:42.012Z,18.60
2022-09-03T02:00:20.162Z,18.60
2022-09-03T02:02:51.435Z,18.50
2022-09-03T02:05:27.487Z,18.50
2022-09-03T02:08:01.016Z,18.50
2022-09-03T02:10:38.875Z,18.50
2022-09-03T02:13:10.198Z,18.50
2022-09-03T02:15:40.869Z,18.50
2022-09-03T02:18:15.024Z,18.60
2022-09-03T02:20:42.654Z,18.60
2022-09-03T02:23:09.714Z,18.60
2022-09-03T02:25:40.332Z,18.60
2022-09-03T02:28:17.270Z,18.70
2022-09-03T02:30:45.314Z,18.60
2022-09-03T02:33:12.563Z,18.50
2022-09-03T02:35:40.754Z,18.50
2022-09-03T02:38:22.919Z,18.50
2022-09-03T02:40:49.872Z,18.50
2022-09-03T02:43:25.896Z,18.50
2022-09-03T02:45:58.407Z,18.40
2022-09-03T02:48:25.877Z,18.40
2022-09-03T02:50:52.869Z,18.40
2022-09-03T02:53:19.698Z,18.40
2022-09-03T02:55:46.438Z,18.30
2022-09-03T02:58:13.464Z,18.30
2022-09-03T03:00:40.161Z,18.30
2022-09-03T03:03:07.506Z,18.30
2022-09-03T03:05:56.017Z,18.30
2022-09-03T03:08:25.998Z,18.20
2022-09-03T03:10:56.292Z,18.20
2022-09-03T03:13:23.441Z,18.30
2022-09-03T03:15:50.255Z,18.20
2022-09-03T03:18:17.570Z,18.20
2022-09-03T03:20:44.595Z,18.20
2022-09-03T03:23:11.729Z,18.20
2022-09-03T03:25:39.864Z,18.20
2022-09-03T03:28:07.398Z,18.10
2022-09-03T03:30:37.185Z,18.20
2022-09-03T03:33:05.020Z,18.20
2022-09-03T03:35:31.936Z,18.20
2022-09-03T03:37:59.658Z,18.30
2022-09-03T03:40:26.939Z,18.20
2022-09-03T03:42:54.716Z,18.20
2022-09-03T03:45:21.480Z,18.30
2022-09-03T03:47:48.260Z,18.20
2022-09-03T03:50:15.392Z,18.20
2022-09-03T03:52:42.098Z,18.30
2022-09-03T03:55:09.108Z,18.40
2022-09-03T03:57:36.873Z,18.30
2022-09-03T04:00:04.510Z,18.20
2022-09-03T04:02:31.258Z,18.10
2022-09-03T04:04:58.083Z,18.10
2022-09-03T04:07:25.797Z,18.20
2022-09-03T04:09:52.503Z,18.10
2022-09-03T04:12:19.323Z,18.10
2022-09-03T04:14:46.088Z,18.10
2022-09-03T04:17:12.869Z,17.70
2022-09-03T04:19:39.579Z,17.80
2022-09-03T04:22:06.283Z,17.90
2022-09-03T04:24:32.974Z,18.00
2022-09-03T04:26:59.631Z,18.00
2022-09-03T04:29:26.426Z,18.00
2022-09-03T04:32:11.517Z,18.00
2022-09-03T04:34:38.238Z,17.90
2022-09-03T04:37:05.061Z,18.00
2022-09-03T04:39:31.875Z,18.00
2022-09-03T04:42:00.083Z,18.00
2022-09-03T04:44:26.957Z,18.00
2022-09-03T04:46:53.652Z,18.00
2022-09-03T04:49:20.733Z,18.10
2022-09-03T04:51:47.416Z,17.90
2022-09-03T04:54:14.222Z,17.90
2022-09-03T04:56:40.940Z,18.00
2022-09-03T04:59:09.636Z,18.10
2022-09-03T05:01:38.826Z,18.10
2022-09-03T05:04:06.759Z,17.90
2022-09-03T05:06:34.643Z,17.90
2022-09-03T05:09:01.868Z,18.00
2022-09-03T05:11:29.169Z,18.00
2022-09-03T05:13:58.164Z,18.00
2022-09-03T05:16:26.901Z,18.20
2022-09-03T05:18:55.311Z,18.10
2022-09-03T05:21:22.778Z,18.00
2022-09-03T05:23:50.967Z,17.80
2022-09-03T05:26:30.400Z,17.90
2022-09-03T05:29:00.156Z,17.80
2022-09-03T05:31:29.213Z,17.60
2022-09-03T05:33:58.640Z,17.40
2022-09-03T05:36:28.523Z,17.40
2022-09-03T05:38:56.033Z,17.20
2022-09-03T05:41:23.730Z,17.30
2022-09-03T05:43:56.131Z,17.40
2022-09-03T05:46:31.685Z,17.60
2022-09-03T05:49:00.379Z,17.50
2022-09-03T05:51:27.189Z,17.30
2022-09-03T05:53:55.547Z,17.20
2022-09-03T05:56:24.981Z,17.20
2022-09-03T05:58:54.154Z,17.00
2022-09-03T06:01:32.663Z,17.10
2022-09-03T06:04:07.525Z,17.30
2022-09-03T06:06:36.848Z,17.40
2022-09-03T06:09:07.037Z,17.40
2022-09-03T06:11:35.492Z,17.70
2022-09-03T06:14:08.532Z,17.80
2022-09-03T06:16:39.132Z,17.90
2022-09-03T06:19:10.222Z,18.00
2022-09-03T06:21:40.534Z,18.00
2022-09-03T06:24:07.483Z,18.00
2022-09-03T06:26:35.274Z,18.10
2022-09-03T06:29:01.970Z,18.10
2022-09-03T06:31:28.798Z,18.00
2022-09-03T06:33:58.542Z,18.00
2022-09-03T06:36:27.701Z,17.90
2022-09-03T06:38:56.841Z,18.00
2022-09-03T06:41:26.263Z,18.00
2022-09-03T06:44:05.003Z,18.20
2022-09-03T06:46:38.879Z,18.30
2022-09-03T06:49:05.696Z,18.40
2022-09-03T06:51:33.567Z,18.40
2022-09-03T06:54:02.634Z,18.40
2022-09-03T06:56:29.765Z,18.10
2022-09-03T06:58:58.341Z,18.20
2022-09-03T07:01:31.590Z,18.50
2022-09-03T07:04:04.368Z,18.80
2022-09-03T07:06:33.757Z,18.70
2022-09-03T07:09:00.495Z,18.70
2022-09-03T07:11:30.895Z,18.60
2022-09-03T07:13:58.855Z,18.50
2022-09-03T07:16:27.983Z,18.50
2022-09-03T07:18:56.134Z,18.80
2022-09-03T07:21:28.693Z,18.90
2022-09-03T07:23:57.258Z,19.00
2022-09-03T07:26:32.520Z,19.10
2022-09-03T07:29:00.855Z,19.30
2022-09-03T07:31:33.571Z,19.40
2022-09-03T07:34:06.001Z,19.50
2022-09-03T07:36:43.104Z,19.40
2022-09-03T07:39:12.226Z,19.20
2022-09-03T07:41:39.696Z,18.90
2022-09-03T07:44:09.130Z,18.90
2022-09-03T07:46:38.040Z,19.20
2022-09-03T07:49:06.437Z,19.40
2022-09-03T07:51:38.456Z,19.30
2022-09-03T07:54:10.697Z,19.20
2022-09-03T07:56:40.259Z,19.00
2022-09-03T07:59:08.019Z,19.10
2022-09-03T08:01:35.766Z,19.10
2022-09-03T08:04:04.369Z,19.30
2022-09-03T08:06:32.858Z,19.10
2022-09-03T08:09:06.054Z,19.00
2022-09-03T08:11:38.836Z,18.90
2022-09-03T08:14:08.022Z,19.00
2022-09-03T08:16:41.952Z,19.10
2022-09-03T08:19:09.412Z,19.20
2022-09-03T08:21:36.871Z,19.20
2022-09-03T08:24:04.162Z,19.10
2022-09-03T08:26:33.206Z,19.30
2022-09-03T08:29:00.798Z,19.40
2022-09-03T08:31:29.282Z,19.50
2022-09-03T08:33:58.284Z,19.70
2022-09-03T08:36:31.162Z,19.70
2022-09-03T08:39:04.042Z,19.70
2022-09-03T08:41:42.515Z,19.70
2022-09-03T08:44:40.025Z,19.90
2022-09-03T08:47:18.712Z,20.10
2022-09-03T08:49:48.449Z,20.10
2022-09-03T08:52:21.027Z,20.10
2022-09-03T08:54:51.614Z,20.20
2022-09-03T08:57:20.949Z,20.10
2022-09-03T08:59:51.941Z,20.20
2022-09-03T09:02:46.637Z,20.30
2022-09-03T09:05:20.297Z,20.30
2022-09-03T09:08:24.880Z,19.80
2022-09-03T09:11:08.672Z,19.60
2022-09-03T09:13:56.687Z,19.40
2022-09-03T09:16:41.656Z,19.20
2022-09-03T09:19:29.291Z,19.00
2022-09-03T09:22:10.376Z,18.90
2022-09-03T09:24:48.231Z,19.10
2022-09-03T09:27:19.678Z,19.00
2022-09-03T09:29:51.531Z,19.00
2022-09-03T09:32:21.806Z,19.20
2022-09-03T09:34:52.299Z,19.10
2022-09-03T09:37:19.918Z,18.90
2022-09-03T09:39:58.965Z,19.00
2022-09-03T09:42:27.264Z,19.10
2022-09-03T09:44:54.017Z,19.20
2022-09-03T09:47:34.597Z,19.40
2022-09-03T09:50:03.145Z,19.60
2022-09-03T09:52:31.155Z,19.50
2022-09-03T09:55:16.259Z,19.60
2022-09-03T09:57:43.014Z,19.40
2022-09-03T10:00:16.111Z,19.50
2022-09-03T10:02:57.181Z,19.80
2022-09-03T10:05:37.822Z,19.90
2022-09-03T10:08:26.298Z,20.00
2022-09-03T10:10:53.018Z,20.10
2022-09-03T10:13:26.701Z,20.00
2022-09-03T10:16:18.739Z,19.80
2022-09-03T10:19:06.870Z,19.80
2022-09-03T10:22:05.236Z,19.80
2022-09-03T10:24:41.525Z,19.80
2022-09-03T10:27:12.156Z,20.20
2022-09-03T10:29:40.794Z,20.20
2022-09-03T10:32:27.475Z,20.50
2022-09-03T10:35:31.278Z,20.50
2022-09-03T10:38:17.240Z,20.70
2022-09-03T10:41:04.807Z,20.70
2022-09-03T10:44:00.104Z,20.80
2022-09-03T10:46:29.762Z,20.70
2022-09-03T10:48:56.514Z,20.80
2022-09-03T10:51:25.508Z,20.80
2022-09-03T10:54:04.257Z,20.90
2022-09-03T10:56:43.078Z,21.10
2022-09-03T10:59:29.251Z,21.20
2022-09-03T11:02:23.886Z,21.20
2022-09-03T11:05:00.535Z,21.20
2022-09-03T11:07:50.522Z,21.30
2022-09-03T11:10:30.834Z,21.40
2022-09-03T11:13:07.776Z,21.50
2022-09-03T11:15:43.241Z,21.70
2022-09-03T11:18:23.015Z,21.90
2022-09-03T11:20:54.836Z,21.90
2022-09-03T11:23:24.702Z,22.00
2022-09-03T11:25:59.474Z,22.00
2022-09-03T11:28:50.278Z,21.90
2022-09-03T11:31:23.999Z,21.30
2022-09-03T11:34:08.380Z,20.90
2022-09-03T11:36:38.720Z,20.70
2022-09-03T11:39:26.571Z,20.60
2022-09-03T11:42:07.032Z,20.80
2022-09-03T11:44:51.517Z,20.80
2022-09-03T11:47:24.424Z,20.80
2022-09-03T11:49:54.098Z,20.70
2022-09-03T11:52:32.883Z,20.70
2022-09-03T11:55:02.354Z,20.60
2022-09-03T11:57:31.757Z,20.70
2022-09-03T12:00:12.440Z,20.90
2022-09-03T12:02:46.482Z,21.30
2022-09-03T12:05:38.125Z,21.60
2022-09-03T12:08:18.216Z,21.80
2022-09-03T12:11:09.593Z,22.00
2022-09-03T12:14:00.615Z,22.10
2022-09-03T12:16:41.452Z,22.10
2022-09-03T12:19:15.797Z,22.00
2022-09-03T12:21:42.499Z,21.80
2022-09-03T12:24:13.569Z,21.70
2022-09-03T12:26:42.609Z,21.90
2022-09-03T12:29:26.649Z,22.30
2022-09-03T12:31:57.052Z,22.30
2022-09-03T12:34:25.792Z,22.10
2022-09-03T12:36:54.186Z,22.00
2022-09-03T12:42:19.706Z,21.80
2022-09-03T12:44:46.550Z,21.80
2022-09-03T12:50:11.218Z,21.60
2022-09-03T12:52:59.427Z,21.60
2022-09-03T12:55:42.813Z,21.50
2022-09-03T12:58:19.177Z,21.40
2022-09-03T13:00:51.904Z,21.40
2022-09-03T13:03:44.498Z,21.30
2022-09-03T13:06:14.743Z,21.30
2022-09-03T13:09:02.327Z,21.20
2022-09-03T13:11:33.104Z,21.20
2022-09-03T13:14:08.251Z,21.20
2022-09-03T13:16:47.151Z,21.20
2022-09-03T13:19:59.529Z,21.20
2022-09-03T13:22:50.672Z,21.10
2022-09-03T13:25:22.984Z,21.10
2022-09-03T13:28:14.614Z,21.10
2022-09-03T13:30:58.441Z,21.10
2022-09-03T13:33:33.368Z,21.10
2022-09-03T13:36:08.386Z,21.10
2022-09-03T13:38:41.938Z,21.10
2022-09-03T13:41:41.215Z,21.20
2022-09-03T13:44:32.216Z,21.20
2022-09-03T13:47:11.854Z,21.30
2022-09-03T13:50:22.241Z,21.20
2022-09-03T13:53:30.556Z,21.30
2022-09-03T13:56:05.217Z,21.20
2022-09-03T13:58:43.165Z,21.10
2022-09-03T14:01:48.744Z,21.00
2022-09-03T14:04:24.322Z,20.90
2022-09-03T14:07:01.925Z,20.80
2022-09-03T14:10:14.898Z,20.80
2022-09-03T14:12:49.243Z,20.80
2022-09-03T14:15:29.636Z,20.80
2022-09-03T14:18:23.798Z,20.80
2022-09-03T14:21:02.956Z,20.80
2022-09-03T14:23:51.690Z,20.90
2022-09-03T14:26:39.646Z,21.10
2022-09-03T14:29:12.651Z,21.20
2022-09-03T14:31:57.281Z,21.50
2022-09-03T14:34:55.201Z,21.70
2022-09-03T14:37:50.063Z,21.90
2022-09-03T14:40:26.620Z,21.90
2022-09-03T14:43:01.850Z,22.10
2022-09-03T14:45:56.545Z,22.10
2022-09-03T14:48:40.149Z,22.20
2022-09-03T14:51:44.277Z,22.30
2022-09-03T14:54:29.029Z,22.40
2022-09-03T14:57:33.500Z,22.60
2022-09-03T15:00:18.570Z,22.60
2022-09-03T15:02:53.203Z,22.60
2022-09-03T15:05:38.484Z,22.60
2022-09-03T15:08:18.531Z,22.70
2022-09-03T15:10:50.295Z,22.60
2022-09-03T15:13:50.295Z,22.70
2022-09-03T15:16:56.561Z,22.80
2022-09-03T15:19:46.418Z,22.80
2022-09-03T15:22:49.765Z,22.70
2022-09-03T15:25:42.192Z,22.70
2022-09-03T15:28:17.692Z,22.80
2022-09-03T15:31:01.123Z,22.80
2022-09-03T15:33:52.417Z,22.50
2022-09-03T15:36:39.112Z,22.60
2022-09-03T15:39:13.602Z,22.50
2022-09-03T15:42:04.863Z,22.70
2022-09-03T15:44:48.293Z,22.90
2022-09-03T15:47:41.245Z,23.10
2022-09-03T15:51:01.822Z,23.40
2022-09-03T15:53:39.616Z,23.40
2022-09-03T15:56:13.520Z,23.40
2022-09-03T15:59:07.164Z,23.40
2022-09-03T16:01:59.646Z,23.30
2022-09-03T16:04:45.608Z,23.20
2022-09-03T16:07:30.436Z,23.10
2022-09-03T16:10:25.968Z,23.10
2022-09-03T16:13:22.866Z,23.00
2022-09-03T16:16:10.799Z,22.90
2022-09-03T16:18:50.010Z,22.90
2022-09-03T16:21:22.823Z,22.80
2022-09-03T16:24:02.575Z,22.90
2022-09-03T16:27:11.241Z,23.00
2022-09-03T16:29:40.228Z,22.90
2022-09-03T16:32:27.197Z,22.90
2022-09-03T16:34:53.921Z,22.90
2022-09-03T16:37:45.905Z,22.90
2022-09-03T16:40:26.691Z,22.90
2022-09-03T16:43:39.652Z,22.90
2022-09-03T16:46:45.072Z,22.90
2022-09-03T16:49:33.678Z,22.80
2022-09-03T16:52:37.542Z,22.90
2022-09-03T16:55:25.402Z,22.90
2022-09-03T16:58:13.447Z,22.90
2022-09-03T17:01:17.477Z,22.90
2022-09-03T17:03:48.189Z,22.90
2022-09-03T17:07:12.246Z,22.80
2022-09-03T17:09:50.891Z,22.80
2022-09-03T17:12:37.404Z,22.70
2022-09-03T17:15:25.521Z,22.70
2022-09-03T17:18:28.660Z,22.60
2022-09-03T17:21:14.346Z,22.50
2022-09-03T17:24:33.565Z,22.30
2022-09-03T17:27:21.038Z,22.30
2022-09-03T17:30:20.434Z,22.20
2022-09-03T17:33:05.330Z,22.10
2022-09-03T17:35:38.137Z,22.10
2022-09-03T17:38:21.843Z,22.10
2022-09-03T17:41:19.108Z,22.00
2022-09-03T17:44:04.571Z,21.90
2022-09-03T17:47:02.626Z,21.80
2022-09-03T17:49:34.255Z,21.80
2022-09-03T17:52:12.237Z,21.70
2022-09-03T17:54:47.959Z,21.70
2022-09-03T17:57:32.402Z,21.70
2022-09-03T18:00:12.437Z,21.70
2022-09-03T18:03:18.231Z,21.70
2022-09-03T18:06:10.056Z,21.60
2022-09-03T18:09:03.669Z,21.60
2022-09-03T18:11:46.887Z,21.60
2022-09-03T18:14:37.918Z,21.60
2022-09-03T18:17:17.678Z,21.60
2022-09-03T18:20:19.158Z,21.50
2022-09-03T18:23:26.116Z,21.40
2022-09-03T18:26:33.285Z,21.30
2022-09-03T18:29:30.234Z,21.30
2022-09-03T18:32:15.623Z,21.20
2022-09-03T18:35:01.281Z,21.10
2022-09-03T18:37:47.496Z,21.10
2022-09-03T18:40:50.232Z,21.00
2022-09-03T18:43:48.819Z,20.80
2022-09-03T18:50:42.802Z,20.40
2022-09-03T18:53:40.793Z,20.30
2022-09-03T18:57:01.375Z,20.30
2022-09-03T19:00:10.206Z,20.30
2022-09-03T19:03:24.480Z,20.20
2022-09-03T19:06:20.448Z,20.10
2022-09-03T19:09:45.318Z,20.10
2022-09-03T19:12:46.617Z,20.00
2022-09-03T19:15:48.644Z,19.90
2022-09-03T19:19:01.775Z,20.00
2022-09-03T19:21:57.799Z,20.10
2022-09-03T19:24:50.889Z,20.10
2022-09-03T19:27:59.259Z,19.90
2022-09-03T19:31:24.538Z,19.90
2022-09-03T19:34:47.368Z,20.10
2022-09-03T19:37:36.984Z,20.20
2022-09-03T19:40:57.976Z,20.10
2022-09-03T19:44:07.242Z,20.20
2022-09-03T19:47:03.107Z,20.20
2022-09-03T19:50:19.467Z,20.20
2022-09-03T19:53:12.965Z,20.20
2022-09-03T19:56:07.358Z,20.20
2022-09-03T19:58:56.998Z,20.10
2022-09-03T20:01:47.928Z,19.90
2022-09-03T20:04:34.845Z,19.40
2022-09-03T20:07:24.845Z,19.10
2022-09-03T20:10:12.330Z,18.90
2022-09-03T20:12:42.445Z,19.10
2022-09-03T20:15:10.029Z,18.90
2022-09-03T20:18:02.258Z,19.00
2022-09-03T20:20:48.011Z,19.00
2022-09-03T20:23:30.522Z,19.00
2022-09-03T20:26:12.170Z,19.00
2022-09-03T20:29:02.523Z,19.00
2022-09-03T20:31:58.778Z,19.20
2022-09-03T20:34:46.543Z,19.20
2022-09-03T20:37:25.073Z,19.20
2022-09-03T20:40:16.882Z,19.10
2022-09-03T20:42:52.674Z,19.30
2022-09-03T20:45:26.774Z,19.40
2022-09-03T20:48:22.138Z,19.40
2022-09-03T20:51:17.568Z,19.40
2022-09-03T20:54:17.584Z,19.30
2022-09-03T20:57:02.303Z,19.40
2022-09-03T20:59:48.665Z,19.40
2022-09-03T21:02:27.355Z,19.30
2022-09-03T21:05:43.289Z,19.30
2022-09-03T21:08:40.619Z,19.40
2022-09-03T21:11:29.464Z,19.40
2022-09-03T21:14:21.048Z,19.30
2022-09-03T21:17:18.892Z,19.40
2022-09-03T21:20:12.717Z,19.30
2022-09-03T21:22:54.658Z,19.30
2022-09-03T21:25:25.588Z,19.30
2022-09-03T21:28:02.756Z,19.20
2022-09-03T21:30:31.695Z,19.30
2022-09-03T21:33:33.387Z,19.30
2022-09-03T21:36:15.749Z,19.20
2022-09-03T21:38:49.273Z,19.10
2022-09-03T21:41:31.942Z,19.20
2022-09-03T21:44:05.346Z,19.00
2022-09-03T21:46:37.870Z,19.00
2022-09-03T21:49:15.976Z,19.00
2022-09-03T21:52:07.878Z,19.00
2022-09-03T21:54:35.404Z,19.00
2022-09-03T21:57:22.122Z,18.90
2022-09-03T22:00:04.779Z,18.90
2022-09-03T22:02:32.872Z,18.90
2022-09-03T22:05:01.189Z,18.90
2022-09-03T22:08:02.306Z,18.90
2022-09-03T22:10:38.107Z,18.90
2022-09-03T22:13:31.250Z,18.80
2022-09-03T22:16:06.185Z,18.80
2022-09-03T22:18:35.866Z,18.80
2022-09-03T22:21:53.406Z,18.80
2022-09-03T22:24:34.322Z,18.70
2022-09-03T22:27:12.170Z,18.70
2022-09-03T22:30:03.346Z,18.60
2022-09-03T22:33:01.244Z,18.60
2022-09-03T22:35:37.378Z,18.60
2022-09-03T22:38:13.096Z,18.50
2022-09-03T22:40:54.094Z,18.50
2022-09-03T22:43:49.812Z,18.50
2022-09-03T22:46:22.583Z,18.50
2022-09-03T22:48:52.114Z,18.50
2022-09-03T22:51:21.780Z,18.30
2022-09-03T22:53:51.449Z,18.20
2022-09-03T22:56:22.311Z,18.00
2022-09-03T22:59:09.860Z,17.80
2022-09-03T23:01:48.991Z,17.70
2022-09-03T23:04:29.244Z,17.70
2022-09-03T23:07:11.539Z,17.60
2022-09-03T23:09:42.346Z,17.40
2022-09-03T23:12:20.242Z,17.30
2022-09-03T23:14:53.750Z,17.30
2022-09-03T23:22:42.478Z,17.10
2022-09-03T23:25:19.509Z,17.00
2022-09-03T23:27:59.292Z,17.00
2022-09-03T23:30:26.217Z,16.80
2022-09-03T23:32:57.290Z,16.80
2022-09-03T23:35:28.751Z,17.00
2022-09-03T23:38:24.753Z,16.80
2022-09-03T23:40:59.798Z,16.80
2022-09-03T23:43:38.458Z,16.90
2022-09-03T23:46:34.436Z,17.10
2022-09-03T23:49:21.993Z,17.00
2022-09-03T23:52:13.921Z,17.20
2022-09-03T23:55:17.258Z,17.10
2022-09-03T23:58:03.530Z,17.00
